Time;durP1;ratioP1;P1;durP2;ratioP2;P2;SDS_P1;SDS_P2;PMS_P1;PMS_P2;Temp;Humidity;BMP_temperature;BMP_pressure;BME280_temperature;BME280_humidity;BME280_pressure;Samples;Min_cycle;Max_cycle;Signal;HPM_P1;HPM_P2
2023/05/09 00:01:30;;;;;;;5.10;3.00;;;14.00;93.80;;;;;;5116193;27;20202;-69
2023/05/09 00:03:58;;;;;;;5.70;3.00;;;14.00;93.90;;;;;;5106252;28;20217;-69
2023/05/09 00:06:26;;;;;;;2.70;2.50;;;14.00;93.90;;;;;;5105675;28;20321;-69
2023/05/09 00:08:53;;;;;;;5.33;2.80;;;14.00;94.00;;;;;;5105873;28;20206;-69
2023/05/09 00:11:20;;;;;;;2.57;2.37;;;13.90;94.10;;;;;;5105062;28;20292;-69
2023/05/09 00:13:47;;;;;;;3.40;3.00;;;13.90;94.20;;;;;;5106186;28;20194;-69
2023/05/09 00:16:15;;;;;;;4.23;2.87;;;13.80;94.30;;;;;;5104551;28;20282;-70
2023/05/09 00:18:44;;;;;;;3.87;3.20;;;13.80;94.40;;;;;;5085236;28;20222;-69
2023/05/09 00:21:12;;;;;;;2.97;2.63;;;13.80;94.40;;;;;;5085418;28;20203;-69
2023/05/09 00:23:39;;;;;;;3.20;2.90;;;13.80;94.50;;;;;;5085474;28;20202;-69
2023/05/09 00:26:06;;;;;;;3.03;2.83;;;13.80;94.40;;;;;;5085667;28;20241;-69
2023/05/09 00:28:33;;;;;;;4.23;2.60;;;13.70;94.50;;;;;;5102579;28;20209;-70
2023/05/09 00:31:00;;;;;;;3.37;3.07;;;13.70;94.50;;;;;;5088719;28;20294;-70
2023/05/09 00:33:27;;;;;;;3.47;2.80;;;13.70;94.50;;;;;;5105744;28;20289;-70
2023/05/09 00:35:56;;;;;;;5.67;3.17;;;13.60;94.60;;;;;;5086576;28;20661;-69
2023/05/09 00:38:24;;;;;;;3.40;2.73;;;13.60;94.70;;;;;;5085422;28;20215;-70
2023/05/09 00:40:51;;;;;;;2.83;2.73;;;13.60;94.80;;;;;;5086171;28;20236;-69
2023/05/09 00:43:18;;;;;;;5.00;2.90;;;13.60;94.80;;;;;;5105599;28;20234;-69
2023/05/09 00:45:45;;;;;;;3.20;2.83;;;13.50;94.90;;;;;;5105720;28;20210;-68
2023/05/09 00:48:18;;;;;;;3.27;2.97;;;13.50;95.00;;;;;;5105192;28;20293;-69
2023/05/09 00:50:46;;;;;;;4.53;2.90;;;13.50;95.10;;;;;;5105478;28;20308;-68
2023/05/09 00:53:13;;;;;;;3.03;2.83;;;13.40;94.90;;;;;;5105153;28;20250;-70
2023/05/09 00:55:43;;;;;;;3.00;2.70;;;13.40;94.90;;;;;;5089639;28;20293;-70
2023/05/09 00:58:11;;;;;;;3.17;2.47;;;13.40;95.00;;;;;;5104742;28;20206;-70
2023/05/09 01:00:38;;;;;;;2.87;2.67;;;13.40;95.00;;;;;;5105612;28;20292;-70
2023/05/09 01:03:05;;;;;;;3.90;2.80;;;13.40;95.00;;;;;;5104912;28;20684;-70
2023/05/09 01:05:40;;;;;;;5.33;3.03;;;13.40;95.10;;;;;;5105156;28;20271;-70
2023/05/09 01:08:13;;;;;;;2.77;2.50;;;13.30;95.00;;;;;;5085631;28;20333;-70
2023/05/09 01:10:50;;;;;;;3.67;2.80;;;13.30;95.10;;;;;;5085207;28;20275;-70
2023/05/09 01:13:24;;;;;;;3.27;2.97;;;13.30;95.00;;;;;;5084195;28;20239;-68
2023/05/09 01:16:00;;;;;;;2.90;2.70;;;13.20;95.00;;;;;;5084769;28;20201;-69
2023/05/09 01:18:33;;;;;;;3.23;2.50;;;13.20;95.00;;;;;;5084713;28;20198;-69
2023/05/09 01:21:06;;;;;;;3.40;2.83;;;13.20;95.10;;;;;;5084962;28;20287;-69
2023/05/09 01:24:11;;;;;;;3.83;2.73;;;13.20;95.00;;;;;;5084911;28;20239;-70
2023/05/09 01:26:46;;;;;;;2.80;2.60;;;13.20;95.00;;;;;;5078979;28;20392;-69
2023/05/09 01:29:37;;;;;;;3.93;2.70;;;13.10;94.90;;;;;;5088457;28;20224;-70
2023/05/09 01:32:08;;;;;;;3.33;2.60;;;13.10;95.00;;;;;;5102205;28;20242;-70
2023/05/09 01:34:38;;;;;;;3.87;2.50;;;13.10;94.90;;;;;;5105443;28;20209;-70
2023/05/09 01:37:06;;;;;;;2.80;2.63;;;13.10;94.90;;;;;;5109035;28;20305;-69
2023/05/09 01:39:38;;;;;;;5.70;2.40;;;13.00;95.00;;;;;;5108753;28;20308;-69
2023/05/09 01:42:09;;;;;;;3.13;2.83;;;13.00;94.90;;;;;;5108514;28;20232;-69
2023/05/09 01:44:39;;;;;;;3.07;2.50;;;13.00;94.90;;;;;;5091492;27;20274;-69
2023/05/09 01:47:08;;;;;;;2.67;2.57;;;13.00;94.90;;;;;;5108358;28;20217;-69
2023/05/09 01:49:36;;;;;;;2.23;2.13;;;13.00;94.90;;;;;;5108722;28;20302;-69
2023/05/09 01:52:07;;;;;;;2.80;2.47;;;13.00;95.00;;;;;;5108763;28;20306;-69
2023/05/09 01:54:35;;;;;;;2.73;2.53;;;13.00;94.80;;;;;;5108451;28;20293;-70
2023/05/09 01:57:04;;;;;;;2.67;2.47;;;12.90;94.90;;;;;;5109038;28;20309;-70
2023/05/09 01:59:33;;;;;;;5.27;2.50;;;12.90;94.80;;;;;;5115030;27;20766;-70
2023/05/09 02:02:02;;;;;;;2.83;2.33;;;12.90;94.70;;;;;;5129342;27;20208;-70
2023/05/09 02:04:30;;;;;;;2.77;2.57;;;12.90;94.70;;;;;;5112419;27;20789;-70
2023/05/09 02:06:58;;;;;;;2.70;2.50;;;12.90;94.70;;;;;;5108722;28;20260;-70
2023/05/09 02:09:25;;;;;;;3.03;2.30;;;12.90;94.70;;;;;;5108509;28;20202;-70
2023/05/09 02:11:52;;;;;;;2.73;2.53;;;12.80;94.60;;;;;;5108600;28;20317;-70
2023/05/09 02:14:19;;;;;;;2.50;2.30;;;12.80;94.70;;;;;;5107834;28;20582;-70
2023/05/09 02:16:46;;;;;;;2.47;2.23;;;12.80;94.40;;;;;;5101964;28;20820;-69
2023/05/09 02:19:15;;;;;;;2.83;2.30;;;12.70;94.50;;;;;;5095513;28;20333;-69
2023/05/09 02:21:42;;;;;;;3.13;2.30;;;12.70;94.40;;;;;;5087759;28;20252;-69
2023/05/09 02:24:09;;;;;;;4.57;2.70;;;12.70;94.50;;;;;;5087188;28;20283;-69
2023/05/09 02:26:36;;;;;;;2.23;2.13;;;12.70;94.40;;;;;;5087018;28;20309;-70
2023/05/09 02:29:06;;;;;;;2.70;2.10;;;12.70;94.40;;;;;;5095028;27;20212;-70
2023/05/09 02:31:34;;;;;;;2.53;2.30;;;12.70;94.50;;;;;;5106093;28;20387;-70
2023/05/09 02:34:03;;;;;;;2.70;2.50;;;12.70;94.40;;;;;;5105569;28;20668;-70
2023/05/09 02:36:32;;;;;;;3.37;2.47;;;12.70;94.30;;;;;;5105890;28;20249;-70
2023/05/09 02:39:00;;;;;;;3.27;2.20;;;12.70;94.40;;;;;;5097500;28;20286;-69
2023/05/09 02:41:28;;;;;;;3.07;2.50;;;12.70;94.40;;;;;;5085314;28;20254;-70
2023/05/09 02:43:55;;;;;;;2.53;2.33;;;12.60;94.30;;;;;;5095927;28;20203;-70
2023/05/09 02:46:22;;;;;;;2.60;2.40;;;12.60;94.30;;;;;;5106403;28;20614;-69
2023/05/09 02:48:49;;;;;;;3.10;2.30;;;12.60;94.30;;;;;;5106106;28;20202;-70
2023/05/09 02:51:15;;;;;;;2.43;2.30;;;12.50;94.20;;;;;;5105769;28;20213;-70
2023/05/09 02:53:51;;;;;;;2.80;2.20;;;12.50;94.20;;;;;;5104009;28;20813;-70
2023/05/09 02:56:18;;;;;;;4.40;2.33;;;12.50;94.30;;;;;;5105275;28;20317;-69
2023/05/09 02:58:50;;;;;;;3.37;2.30;;;12.40;94.40;;;;;;5105915;28;20206;-69
2023/05/09 03:01:17;;;;;;;2.37;2.17;;;12.40;94.40;;;;;;5085718;28;20195;-69
2023/05/09 03:03:44;;;;;;;2.67;2.47;;;12.40;94.30;;;;;;5095238;28;20201;-69
2023/05/09 03:06:11;;;;;;;2.67;2.43;;;12.40;94.30;;;;;;5089538;28;20220;-70
2023/05/09 03:08:38;;;;;;;2.53;2.20;;;12.40;94.40;;;;;;5087700;27;20246;-70
2023/05/09 03:11:06;;;;;;;3.30;2.20;;;12.30;94.40;;;;;;5085073;28;20287;-71
2023/05/09 03:13:33;;;;;;;2.50;2.30;;;12.30;94.30;;;;;;5085575;28;20195;-69
2023/05/09 03:16:00;;;;;;;4.33;2.53;;;12.30;94.40;;;;;;5085661;28;20268;-71
2023/05/09 03:18:27;;;;;;;2.70;2.50;;;12.30;94.40;;;;;;5085833;28;20290;-70
2023/05/09 03:20:54;;;;;;;2.57;2.00;;;12.30;94.40;;;;;;5085940;28;20321;-70
2023/05/09 03:23:21;;;;;;;3.47;2.17;;;12.30;94.40;;;;;;5085804;28;20205;-70
2023/05/09 03:25:48;;;;;;;3.00;2.30;;;12.30;94.40;;;;;;5086805;28;20211;-69
2023/05/09 03:28:16;;;;;;;2.50;2.30;;;12.20;94.40;;;;;;5086604;28;20319;-69
2023/05/09 03:30:43;;;;;;;3.43;2.10;;;12.20;94.40;;;;;;5086589;28;20299;-70
2023/05/09 03:33:10;;;;;;;2.60;2.33;;;12.20;94.30;;;;;;5086624;28;20333;-70
2023/05/09 03:35:37;;;;;;;2.57;2.30;;;12.20;94.40;;;;;;5086610;28;20721;-70
2023/05/09 03:38:04;;;;;;;3.00;2.10;;;12.20;94.40;;;;;;5086395;28;20611;-70
2023/05/09 03:40:31;;;;;;;2.30;2.10;;;12.20;94.40;;;;;;5085956;28;20227;-70
2023/05/09 03:42:58;;;;;;;2.67;1.93;;;12.20;94.80;;;;;;5086335;28;20206;-70
2023/05/09 03:45:26;;;;;;;2.97;2.20;;;12.20;94.50;;;;;;5086437;28;20207;-70
2023/05/09 03:47:53;;;;;;;2.27;2.17;;;12.10;94.40;;;;;;5099461;27;20902;-70
2023/05/09 03:50:20;;;;;;;3.17;2.60;;;12.10;94.40;;;;;;5106762;28;20532;-70
2023/05/09 03:52:54;;;;;;;3.80;2.30;;;12.10;94.50;;;;;;5105977;27;20297;-70
2023/05/09 03:55:22;;;;;;;4.33;2.70;;;12.10;94.50;;;;;;5106651;28;20217;-70
2023/05/09 03:57:49;;;;;;;2.93;2.50;;;12.10;94.50;;;;;;5106699;28;20296;-70
2023/05/09 04:00:16;;;;;;;2.57;2.37;;;12.10;94.50;;;;;;5094059;28;20298;-70
2023/05/09 04:02:45;;;;;;;2.53;2.33;;;12.00;94.70;;;;;;5085827;28;20203;-70
2023/05/09 04:05:12;;;;;;;2.27;2.10;;;12.00;94.70;;;;;;5085814;28;20653;-70
2023/05/09 04:07:39;;;;;;;2.80;2.60;;;12.00;94.70;;;;;;5085946;28;20313;-70
2023/05/09 04:10:07;;;;;;;3.37;2.70;;;12.00;94.70;;;;;;5085406;28;20207;-69
2023/05/09 04:12:34;;;;;;;2.90;2.70;;;11.90;94.70;;;;;;5085330;28;21053;-70
2023/05/09 04:15:01;;;;;;;2.87;2.60;;;11.90;94.80;;;;;;5095829;28;20293;-70
2023/05/09 04:17:28;;;;;;;3.33;2.37;;;11.90;94.80;;;;;;5106081;28;20216;-70
2023/05/09 04:19:56;;;;;;;2.50;2.37;;;11.90;94.90;;;;;;5106248;28;20293;-70
2023/05/09 04:22:23;;;;;;;3.57;2.90;;;11.90;94.90;;;;;;5105839;28;20631;-70
2023/05/09 04:24:50;;;;;;;2.37;2.10;;;11.90;94.90;;;;;;5105793;28;20626;-70
2023/05/09 04:27:17;;;;;;;2.63;2.43;;;11.90;95.20;;;;;;5106098;28;20774;-70
2023/05/09 04:29:43;;;;;;;2.60;2.40;;;11.90;95.10;;;;;;5098146;28;20246;-70
2023/05/09 04:32:10;;;;;;;2.63;2.43;;;11.90;94.90;;;;;;5085406;28;20305;-70
2023/05/09 04:34:37;;;;;;;2.57;2.37;;;11.90;95.30;;;;;;5085192;28;20234;-70
2023/05/09 04:37:05;;;;;;;3.00;2.40;;;11.80;95.00;;;;;;5085076;28;20616;-70
2023/05/09 04:39:32;;;;;;;3.50;2.50;;;11.90;95.10;;;;;;5085167;28;20677;-70
2023/05/09 04:42:00;;;;;;;2.60;2.40;;;11.90;95.10;;;;;;5085584;28;20238;-70
2023/05/09 04:44:27;;;;;;;2.97;2.30;;;11.80;95.10;;;;;;5117069;27;20216;-70
2023/05/09 04:46:54;;;;;;;2.80;2.60;;;11.80;95.30;;;;;;5126426;27;20205;-70
2023/05/09 04:49:21;;;;;;;7.00;2.50;;;11.80;95.40;;;;;;5126079;27;20244;-69
2023/05/09 04:51:48;;;;;;;2.73;2.53;;;11.80;95.40;;;;;;5126327;27;20229;-70
2023/05/09 04:54:16;;;;;;;2.60;2.40;;;11.90;95.50;;;;;;5125974;27;20224;-70
2023/05/09 04:56:43;;;;;;;3.37;2.40;;;11.90;95.30;;;;;;5126282;27;20286;-70
2023/05/09 04:59:10;;;;;;;3.07;2.60;;;11.90;95.30;;;;;;5122617;27;20305;-70
2023/05/09 05:01:37;;;;;;;3.00;2.53;;;11.90;95.30;;;;;;5105470;28;20786;-70
2023/05/09 05:04:04;;;;;;;3.50;2.60;;;11.90;95.40;;;;;;5104304;28;20722;-70
2023/05/09 05:06:31;;;;;;;5.13;2.93;;;11.90;95.60;;;;;;5104722;28;20259;-70
2023/05/09 05:08:58;;;;;;;3.27;2.40;;;11.90;95.40;;;;;;5105038;28;20248;-70
2023/05/09 05:11:26;;;;;;;2.90;2.60;;;12.00;95.50;;;;;;5105184;28;20238;-70
2023/05/09 05:13:53;;;;;;;2.27;2.13;;;12.00;95.60;;;;;;5105623;28;20198;-70
2023/05/09 05:16:20;;;;;;;2.77;2.50;;;12.00;95.50;;;;;;5103535;28;20297;-70
2023/05/09 05:18:47;;;;;;;3.03;2.47;;;12.00;95.50;;;;;;5084669;28;20301;-69
2023/05/09 05:21:15;;;;;;;2.57;2.33;;;12.00;95.50;;;;;;5084551;28;20301;-70
2023/05/09 05:23:42;;;;;;;4.27;3.10;;;12.00;95.50;;;;;;5084849;28;20207;-70
2023/05/09 05:26:09;;;;;;;4.63;2.90;;;12.00;95.80;;;;;;5085073;28;20211;-70
2023/05/09 05:28:37;;;;;;;3.90;2.50;;;12.00;95.70;;;;;;5084616;28;20922;-70
2023/05/09 05:31:04;;;;;;;6.23;2.60;;;12.00;95.70;;;;;;5103635;28;20210;-70
2023/05/09 05:33:31;;;;;;;3.27;2.37;;;12.00;95.50;;;;;;5105078;28;20284;-69
2023/05/09 05:35:58;;;;;;;2.67;2.43;;;12.10;95.80;;;;;;5104803;28;20229;-70
2023/05/09 05:38:24;;;;;;;3.57;2.13;;;12.10;95.80;;;;;;5104588;28;20206;-70
2023/05/09 05:40:51;;;;;;;2.73;2.53;;;12.10;95.60;;;;;;5122077;28;20300;-70
2023/05/09 05:43:18;;;;;;;2.90;2.70;;;12.10;95.70;;;;;;5112059;27;20290;-70
2023/05/09 05:45:46;;;;;;;2.40;2.30;;;12.10;95.60;;;;;;5084467;28;20325;-69
2023/05/09 05:48:13;;;;;;;3.27;2.40;;;12.10;95.50;;;;;;5084515;28;20335;-70
2023/05/09 05:50:40;;;;;;;2.53;2.40;;;12.20;95.60;;;;;;5084258;28;20217;-70
2023/05/09 05:53:07;;;;;;;4.00;2.97;;;12.20;95.30;;;;;;5084256;28;20221;-70
2023/05/09 05:55:34;;;;;;;3.10;2.43;;;12.20;95.30;;;;;;5084244;28;20642;-70
2023/05/09 05:58:01;;;;;;;2.80;2.13;;;12.20;95.10;;;;;;5084435;28;20213;-70
2023/05/09 06:00:28;;;;;;;4.23;2.80;;;12.20;95.00;;;;;;5084364;28;20211;-70
2023/05/09 06:02:56;;;;;;;4.00;2.30;;;12.20;95.10;;;;;;5084716;28;20199;-70
2023/05/09 06:05:23;;;;;;;4.97;2.63;;;12.20;95.30;;;;;;5084775;28;20256;-70
2023/05/09 06:07:50;;;;;;;3.13;2.30;;;12.30;95.20;;;;;;5084560;28;20313;-70
2023/05/09 06:10:17;;;;;;;4.60;2.60;;;12.30;95.30;;;;;;5084117;28;20235;-70
2023/05/09 06:12:43;;;;;;;3.07;2.63;;;12.30;95.20;;;;;;5085286;28;20325;-70
2023/05/09 06:15:11;;;;;;;2.67;2.20;;;12.30;95.00;;;;;;5084418;28;20216;-70
2023/05/09 06:17:38;;;;;;;2.67;2.47;;;12.40;95.00;;;;;;5086308;28;20203;-70
2023/05/09 06:20:07;;;;;;;5.93;2.30;;;12.40;94.70;;;;;;5087766;28;20707;-70
2023/05/09 06:22:34;;;;;;;5.53;2.53;;;12.30;94.50;;;;;;5087048;28;20651;-70
2023/05/09 06:25:01;;;;;;;2.60;2.40;;;12.40;94.60;;;;;;5087776;28;20649;-70
2023/05/09 06:27:28;;;;;;;2.30;2.17;;;12.40;94.70;;;;;;5087614;28;20210;-70
2023/05/09 06:29:55;;;;;;;2.40;2.20;;;12.50;94.70;;;;;;5096992;28;20320;-70
2023/05/09 06:32:23;;;;;;;3.10;2.10;;;12.50;94.60;;;;;;5108053;28;20664;-70
2023/05/09 06:34:51;;;;;;;4.60;2.53;;;12.50;94.50;;;;;;5108221;28;20220;-70
2023/05/09 06:37:19;;;;;;;2.33;2.13;;;12.60;94.30;;;;;;5089158;28;20218;-70
2023/05/09 06:39:46;;;;;;;4.17;2.10;;;12.60;94.50;;;;;;5087333;28;20230;-70
2023/05/09 06:42:13;;;;;;;3.30;2.27;;;12.60;94.30;;;;;;5087922;28;20226;-70
2023/05/09 06:44:40;;;;;;;2.27;2.10;;;12.70;94.50;;;;;;5087652;28;20294;-71
2023/05/09 06:47:07;;;;;;;2.97;2.20;;;12.70;94.30;;;;;;5087668;28;20301;-70
2023/05/09 06:49:34;;;;;;;2.70;2.27;;;12.70;94.60;;;;;;5087299;28;20231;-70
2023/05/09 06:52:01;;;;;;;2.13;2.03;;;12.80;95.00;;;;;;5087399;28;20301;-70
2023/05/09 06:54:29;;;;;;;3.10;2.40;;;12.80;94.90;;;;;;5086467;28;20215;-70
2023/05/09 06:56:56;;;;;;;4.63;2.80;;;12.80;94.70;;;;;;5087061;28;20283;-70
2023/05/09 06:59:23;;;;;;;3.23;2.77;;;12.80;94.70;;;;;;5087121;28;20211;-70
2023/05/09 07:01:50;;;;;;;2.87;2.50;;;12.80;94.40;;;;;;5087022;28;20211;-70
2023/05/09 07:04:16;;;;;;;3.07;2.20;;;12.90;94.40;;;;;;5086980;28;20203;-70
2023/05/09 07:06:43;;;;;;;3.17;2.60;;;12.80;94.60;;;;;;5087132;28;20290;-70
2023/05/09 07:09:10;;;;;;;2.37;2.17;;;12.90;94.40;;;;;;5087850;28;20257;-70
2023/05/09 07:11:40;;;;;;;2.33;2.10;;;12.90;94.10;;;;;;5086689;28;20593;-70
2023/05/09 07:14:07;;;;;;;3.80;2.17;;;12.90;94.30;;;;;;5089372;28;20547;-70
2023/05/09 07:16:34;;;;;;;3.43;2.33;;;13.00;94.50;;;;;;5107048;28;20316;-70
2023/05/09 07:19:01;;;;;;;2.97;2.03;;;13.00;94.60;;;;;;5107142;28;20289;-70
2023/05/09 07:21:28;;;;;;;4.87;2.07;;;13.00;94.20;;;;;;5107099;27;20279;-70
2023/05/09 07:23:55;;;;;;;3.30;2.40;;;13.00;94.20;;;;;;5107016;28;20293;-70
2023/05/09 07:26:22;;;;;;;2.50;2.30;;;13.00;94.80;;;;;;5107251;28;20313;-70
2023/05/09 07:28:50;;;;;;;2.57;2.23;;;13.00;94.50;;;;;;5105626;28;20256;-70
2023/05/09 07:31:17;;;;;;;3.57;2.30;;;13.10;94.60;;;;;;5106722;28;20206;-70
2023/05/09 07:33:44;;;;;;;3.47;2.10;;;13.10;94.50;;;;;;5086425;28;20721;-70
2023/05/09 07:36:12;;;;;;;3.80;2.43;;;13.10;93.60;;;;;;5095782;28;20743;-70
2023/05/09 07:38:39;;;;;;;3.03;2.27;;;13.20;94.20;;;;;;5106409;28;20704;-70
2023/05/09 07:41:06;;;;;;;2.60;2.40;;;13.20;93.90;;;;;;5106352;28;20312;-70
2023/05/09 07:43:33;;;;;;;3.53;2.50;;;13.20;93.50;;;;;;5106975;28;20230;-69
2023/05/09 07:46:02;;;;;;;2.97;2.33;;;13.20;93.10;;;;;;5106769;28;20198;-70
2023/05/09 07:48:28;;;;;;;2.70;2.50;;;13.30;93.30;;;;;;5106570;28;20234;-70
2023/05/09 07:50:55;;;;;;;2.97;2.30;;;13.30;93.80;;;;;;5106763;28;20206;-70
2023/05/09 07:53:22;;;;;;;3.40;2.60;;;13.30;93.50;;;;;;5106477;28;20294;-70
2023/05/09 07:55:49;;;;;;;4.67;2.40;;;13.40;93.70;;;;;;5106594;28;20210;-70
2023/05/09 07:58:16;;;;;;;2.90;2.60;;;13.40;93.70;;;;;;5106295;28;20493;-70
2023/05/09 08:00:43;;;;;;;2.47;2.27;;;13.50;94.00;;;;;;5106746;28;20301;-70
2023/05/09 08:03:11;;;;;;;3.07;2.67;;;13.50;93.90;;;;;;5106361;28;20711;-70
2023/05/09 08:05:38;;;;;;;3.30;2.40;;;13.60;94.10;;;;;;5101550;28;20207;-70
2023/05/09 08:08:06;;;;;;;2.57;2.47;;;13.60;94.30;;;;;;5085930;28;20207;-70
2023/05/09 08:10:33;;;;;;;3.17;2.30;;;13.60;94.20;;;;;;5085818;28;20325;-70
2023/05/09 08:13:00;;;;;;;3.80;2.70;;;13.70;94.20;;;;;;5086002;28;20242;-70
2023/05/09 08:15:27;;;;;;;2.87;2.17;;;13.70;94.00;;;;;;5099107;28;20315;-70
2023/05/09 08:17:54;;;;;;;2.77;2.57;;;13.80;93.90;;;;;;5106173;28;20233;-70
2023/05/09 08:20:23;;;;;;;2.70;2.50;;;13.80;93.50;;;;;;5106259;28;20301;-70
2023/05/09 08:22:49;;;;;;;3.40;3.10;;;13.80;93.50;;;;;;5106060;28;20206;-70
2023/05/09 08:25:17;;;;;;;2.53;2.33;;;13.90;93.50;;;;;;5105921;28;20681;-70
2023/05/09 08:27:44;;;;;;;2.53;2.00;;;13.90;93.20;;;;;;5106187;28;20210;-70
2023/05/09 08:30:12;;;;;;;2.10;2.00;;;13.90;93.60;;;;;;5094273;28;20365;-70
2023/05/09 08:32:39;;;;;;;2.50;2.27;;;14.00;94.10;;;;;;5096902;27;20306;-70
2023/05/09 08:35:07;;;;;;;2.60;2.40;;;14.10;93.10;;;;;;5106058;28;20210;-70
2023/05/09 08:37:36;;;;;;;2.30;2.00;;;14.10;93.20;;;;;;5106048;28;20317;-70
2023/05/09 08:40:05;;;;;;;2.70;2.03;;;14.20;93.40;;;;;;5105160;27;20313;-70
2023/05/09 08:42:36;;;;;;;2.80;2.40;;;14.20;93.40;;;;;;5105648;28;20741;-70
2023/05/09 08:45:07;;;;;;;2.23;2.13;;;14.30;92.90;;;;;;5105760;28;20212;-69
2023/05/09 08:47:35;;;;;;;3.33;2.30;;;14.30;92.20;;;;;;5105994;28;20298;-70
2023/05/09 08:50:03;;;;;;;2.43;2.23;;;14.40;92.50;;;;;;5105511;28;20226;-70
2023/05/09 08:52:32;;;;;;;3.57;2.33;;;14.40;92.10;;;;;;5105749;28;20221;-70
2023/05/09 08:55:00;;;;;;;2.30;2.10;;;14.50;92.00;;;;;;5105216;28;20222;-70
2023/05/09 08:57:28;;;;;;;4.57;2.37;;;14.50;92.20;;;;;;5105374;28;20197;-70
2023/05/09 08:59:56;;;;;;;2.80;2.20;;;14.60;91.80;;;;;;5105511;28;20213;-70
2023/05/09 09:02:23;;;;;;;24.00;3.30;;;14.60;91.60;;;;;;5096273;28;20217;-70
2023/05/09 09:04:50;;;;;;;3.17;2.30;;;14.70;92.30;;;;;;5084856;28;20211;-70
2023/05/09 09:07:18;;;;;;;5.23;2.00;;;14.70;91.90;;;;;;5084798;28;20317;-70
2023/05/09 09:09:47;;;;;;;3.73;2.20;;;14.80;91.50;;;;;;5084457;28;20239;-70
2023/05/09 09:12:16;;;;;;;2.37;2.17;;;14.80;90.90;;;;;;5084396;28;20235;-70
2023/05/09 09:14:48;;;;;;;3.37;2.07;;;14.90;91.30;;;;;;5084633;28;20289;-70
2023/05/09 09:17:18;;;;;;;5.13;2.57;;;15.00;90.90;;;;;;5084731;28;20249;-70
2023/05/09 09:19:47;;;;;;;5.43;2.10;;;15.00;91.20;;;;;;5084563;28;20274;-70
2023/05/09 09:22:16;;;;;;;2.27;2.07;;;15.00;90.50;;;;;;5084239;28;20290;-70
2023/05/09 09:24:43;;;;;;;3.53;2.40;;;15.10;91.00;;;;;;5091361;28;20286;-70
2023/05/09 09:27:10;;;;;;;2.13;1.93;;;15.20;90.50;;;;;;5104379;28;20301;-70
2023/05/09 09:29:38;;;;;;;2.40;2.10;;;15.20;91.10;;;;;;5097870;28;20329;-70
2023/05/09 09:32:06;;;;;;;3.53;2.00;;;15.30;90.40;;;;;;5084346;28;20211;-70
2023/05/09 09:34:33;;;;;;;2.47;2.20;;;15.30;90.50;;;;;;5084593;28;20293;-69
2023/05/09 09:37:00;;;;;;;2.23;1.87;;;15.40;91.00;;;;;;5084626;28;20242;-70
2023/05/09 09:39:27;;;;;;;2.27;2.07;;;15.40;90.60;;;;;;5084172;28;20271;-70
2023/05/09 09:41:54;;;;;;;1.80;1.70;;;15.50;90.30;;;;;;5084208;28;20294;-70
2023/05/09 09:44:22;;;;;;;4.23;2.00;;;15.60;90.00;;;;;;5084343;28;20211;-70
2023/05/09 09:46:52;;;;;;;2.97;1.90;;;15.60;90.10;;;;;;5084188;28;20214;-70
2023/05/09 09:49:21;;;;;;;2.20;2.00;;;15.70;90.40;;;;;;5084061;28;20329;-70
2023/05/09 09:51:51;;;;;;;2.30;1.83;;;15.80;90.20;;;;;;5085968;28;20293;-70
2023/05/09 09:54:18;;;;;;;2.10;2.00;;;15.90;88.50;;;;;;5087890;28;20191;-70
2023/05/09 09:56:46;;;;;;;2.40;1.77;;;15.90;88.20;;;;;;5088374;28;20207;-70
2023/05/09 09:59:15;;;;;;;4.93;2.00;;;16.00;86.80;;;;;;5093515;28;20302;-70
2023/05/09 10:02:00;;;;;;;2.40;1.57;;;16.10;87.30;;;;;;5108966;28;20328;-70
2023/05/09 10:04:30;;;;;;;2.93;2.63;;;16.10;85.10;;;;;;5108379;28;20209;-70
2023/05/09 10:06:59;;;;;;;2.83;2.00;;;16.20;86.00;;;;;;5108465;28;20660;-70
2023/05/09 10:09:28;;;;;;;2.00;1.77;;;16.20;87.50;;;;;;5108042;28;20324;-70
2023/05/09 10:11:56;;;;;;;5.70;2.70;;;16.30;86.90;;;;;;5108446;28;20431;-70
2023/05/09 10:14:24;;;;;;;3.07;2.20;;;16.40;88.60;;;;;;5108519;28;21125;-70
2023/05/09 10:16:55;;;;;;;2.50;2.30;;;16.50;90.00;;;;;;5108046;28;20198;-70
2023/05/09 10:19:25;;;;;;;4.40;2.00;;;16.50;88.60;;;;;;5108226;28;20496;-70
2023/05/09 10:21:55;;;;;;;4.37;2.00;;;16.60;90.80;;;;;;5123417;27;20198;-70
2023/05/09 10:24:28;;;;;;;2.30;2.07;;;16.70;90.40;;;;;;5123472;27;20248;-70
2023/05/09 10:27:02;;;;;;;3.60;2.30;;;16.80;90.10;;;;;;5108010;28;20416;-70
2023/05/09 10:29:34;;;;;;;2.67;2.33;;;16.80;88.40;;;;;;5108089;27;20842;-70
2023/05/09 10:32:08;;;;;;;4.83;2.80;;;16.90;89.40;;;;;;5107645;28;20293;-70
2023/05/09 10:34:40;;;;;;;2.37;2.07;;;17.00;90.00;;;;;;5108047;28;20280;-70
2023/05/09 10:37:08;;;;;;;3.83;2.33;;;17.10;90.00;;;;;;5107703;28;20190;-70
2023/05/09 10:39:36;;;;;;;3.93;2.80;;;17.10;88.20;;;;;;5107932;28;20333;-70
2023/05/09 10:42:04;;;;;;;2.70;2.50;;;17.20;87.60;;;;;;5107379;28;20221;-70
2023/05/09 10:44:32;;;;;;;4.17;2.37;;;17.30;89.60;;;;;;5108111;28;20267;-70
2023/05/09 10:47:01;;;;;;;3.87;2.30;;;17.40;87.40;;;;;;5107323;28;20306;-70
2023/05/09 10:49:28;;;;;;;3.00;2.20;;;17.40;88.20;;;;;;5107509;27;20222;-70
2023/05/09 10:51:56;;;;;;;4.43;2.40;;;17.50;87.80;;;;;;5107369;28;20256;-70
2023/05/09 10:54:27;;;;;;;3.53;2.20;;;17.60;88.10;;;;;;5102225;28;20302;-70
2023/05/09 10:56:55;;;;;;;2.33;2.13;;;17.80;87.50;;;;;;5087026;28;20934;-70
2023/05/09 10:59:34;;;;;;;6.03;2.47;;;17.80;86.20;;;;;;5096366;27;20217;-70
2023/05/09 11:02:02;;;;;;;2.77;2.20;;;18.00;84.90;;;;;;5127621;27;20208;-70
2023/05/09 11:04:30;;;;;;;2.90;2.47;;;18.00;84.10;;;;;;5127402;27;20232;-70
2023/05/09 11:06:58;;;;;;;3.13;2.20;;;18.10;84.30;;;;;;5127410;27;20563;-70
2023/05/09 11:09:31;;;;;;;2.63;2.23;;;18.10;84.10;;;;;;5127013;27;20229;-70
2023/05/09 11:12:07;;;;;;;7.33;2.73;;;18.20;84.10;;;;;;5127078;27;20584;-71
2023/05/09 11:14:39;;;;;;;2.73;2.53;;;18.30;84.40;;;;;;5121452;27;20193;-70
2023/05/09 11:17:07;;;;;;;5.27;2.57;;;18.50;85.40;;;;;;5107056;28;20995;-70
2023/05/09 11:19:57;;;;;;;2.90;2.37;;;18.50;85.00;;;;;;5106936;28;20341;-70
2023/05/09 11:22:27;;;;;;;3.27;2.40;;;18.60;84.20;;;;;;5087175;28;20203;-70
2023/05/09 11:25:03;;;;;;;7.00;2.00;;;18.80;84.00;;;;;;5086100;28;20577;-70
2023/05/09 11:27:38;;;;;;;2.60;2.50;;;18.90;82.10;;;;;;5086318;28;20760;-70
2023/05/09 11:30:06;;;;;;;4.73;2.33;;;18.90;82.80;;;;;;5097165;28;20225;-70
2023/05/09 11:32:40;;;;;;;5.00;2.30;;;19.00;83.00;;;;;;5107003;28;20241;-70
2023/05/09 11:35:09;;;;;;;3.43;2.60;;;19.10;81.00;;;;;;5106896;28;20275;-70
2023/05/09 11:37:46;;;;;;;3.77;2.00;;;19.20;81.30;;;;;;5106629;28;20209;-70
2023/05/09 11:40:14;;;;;;;5.43;2.53;;;19.20;81.10;;;;;;5106012;28;20317;-70
2023/05/09 11:42:42;;;;;;;6.87;2.70;;;19.40;83.10;;;;;;5106489;28;20304;-70
2023/05/09 11:45:10;;;;;;;2.63;2.40;;;19.40;81.00;;;;;;5106989;28;20301;-68
2023/05/09 11:47:38;;;;;;;7.97;2.20;;;19.50;80.80;;;;;;5106498;28;20241;-69
2023/05/09 11:50:06;;;;;;;2.70;2.00;;;19.50;82.60;;;;;;5106335;28;20265;-69
2023/05/09 11:52:33;;;;;;;4.27;2.30;;;19.60;81.30;;;;;;5086154;28;20213;-69
2023/05/09 11:55:02;;;;;;;2.27;2.07;;;19.70;80.40;;;;;;5086149;28;20214;-69
2023/05/09 11:57:29;;;;;;;4.72;2.10;;;19.80;80.30;;;;;;5085960;28;20315;-69
2023/05/09 11:59:56;;;;;;;5.60;2.40;;;19.90;79.60;;;;;;5105495;27;20219;-69
2023/05/09 12:02:23;;;;;;;7.33;1.97;;;19.90;77.60;;;;;;5126416;27;20297;-69
2023/05/09 12:04:50;;;;;;;4.82;2.50;;;20.00;77.30;;;;;;5126629;27;20659;-69
2023/05/09 12:07:17;;;;;;;3.70;2.28;;;20.20;78.70;;;;;;5126274;27;20672;-68
2023/05/09 12:09:44;;;;;;;5.80;2.20;;;20.30;77.40;;;;;;5126306;27;20319;-69
2023/05/09 12:12:13;;;;;;;5.43;2.50;;;20.30;77.40;;;;;;5126168;27;20802;-69
2023/05/09 12:14:41;;;;;;;3.28;2.40;;;20.40;78.60;;;;;;5108611;27;20212;-70
2023/05/09 12:17:10;;;;;;;2.80;2.60;;;20.50;79.40;;;;;;5105943;28;20294;-70
2023/05/09 12:19:37;;;;;;;5.30;2.60;;;20.70;81.20;;;;;;5106186;28;20212;-70
2023/05/09 12:22:05;;;;;;;5.20;2.22;;;20.90;79.90;;;;;;5105388;27;20565;-70
2023/05/09 12:24:35;;;;;;;2.97;2.20;;;20.90;77.50;;;;;;5105406;28;20214;-70
2023/05/09 12:27:03;;;;;;;8.25;2.28;;;21.00;76.40;;;;;;5105398;28;20210;-70
2023/05/09 12:29:32;;;;;;;3.72;2.30;;;21.10;76.70;;;;;;5105511;28;20210;-70
2023/05/09 12:32:00;;;;;;;11.07;3.00;;;21.00;75.60;;;;;;5105674;28;20210;-70
2023/05/09 12:34:27;;;;;;;4.85;2.17;;;21.10;76.50;;;;;;5105424;28;20214;-70
2023/05/09 12:36:53;;;;;;;2.80;2.55;;;21.10;77.30;;;;;;5105740;28;20206;-70
2023/05/09 12:39:21;;;;;;;5.78;2.28;;;21.30;79.60;;;;;;5105043;27;20403;-70
2023/05/09 12:41:49;;;;;;;3.67;2.28;;;21.40;76.70;;;;;;5105539;28;20218;-70
2023/05/09 12:44:21;;;;;;;3.88;2.38;;;21.40;77.70;;;;;;5105159;28;20571;-70
2023/05/09 12:47:01;;;;;;;6.28;2.80;;;21.50;76.20;;;;;;5103644;28;20532;-71
2023/05/09 12:49:32;;;;;;;3.53;2.50;;;21.60;75.50;;;;;;5105861;28;20826;-70
2023/05/09 12:52:00;;;;;;;3.30;2.47;;;21.50;74.80;;;;;;5105351;28;20787;-71
2023/05/09 12:54:28;;;;;;;2.58;1.90;;;21.60;75.30;;;;;;5105380;28;20652;-70